sensor_id;sensor_type;location;lat;lon;timestamp;P1;durP1;ratioP1;P2;durP2;ratioP2
52031;SDS011;38044;45.148;39.604;2022-11-14T00:00:00;10.30;;;5.80;;
52031;SDS011;38044;45.148;39.604;2022-11-14T00:02:26;8.98;;;5.97;;
52031;SDS011;38044;45.148;39.604;2022-11-14T00:04:52;8.25;;;5.03;;
52031;SDS011;38044;45.148;39.604;2022-11-14T00:07:18;9.20;;;5.70;;
52031;SDS011;38044;45.148;39.604;2022-11-14T00:09:44;11.50;;;5.60;;
52031;SDS011;38044;45.148;39.604;2022-11-14T00:12:11;8.43;;;5.45;;
52031;SDS011;38044;45.148;39.604;2022-11-14T00:14:37;10.65;;;6.15;;
52031;SDS011;38044;45.148;39.604;2022-11-14T00:17:03;9.70;;;5.70;;
52031;SDS011;38044;45.148;39.604;2022-11-14T00:19:30;9.98;;;5.68;;
52031;SDS011;38044;45.148;39.604;2022-11-14T00:21:56;8.77;;;5.55;;
52031;SDS011;38044;45.148;39.604;2022-11-14T00:24:24;9.57;;;6.20;;
52031;SDS011;38044;45.148;39.604;2022-11-14T00:26:50;8.00;;;5.20;;
52031;SDS011;38044;45.148;39.604;2022-11-14T00:29:16;10.70;;;5.63;;
52031;SDS011;38044;45.148;39.604;2022-11-14T00:31:42;9.30;;;5.28;;
52031;SDS011;38044;45.148;39.604;2022-11-14T00:34:08;10.13;;;5.57;;
52031;SDS011;38044;45.148;39.604;2022-11-14T00:36:34;8.48;;;4.90;;
52031;SDS011;38044;45.148;39.604;2022-11-14T00:39:01;8.88;;;5.22;;
52031;SDS011;38044;45.148;39.604;2022-11-14T00:41:27;8.10;;;5.10;;
52031;SDS011;38044;45.148;39.604;2022-11-14T00:43:53;6.97;;;4.53;;
52031;SDS011;38044;45.148;39.604;2022-11-14T00:46:18;7.93;;;5.18;;
52031;SDS011;38044;45.148;39.604;2022-11-14T00:48:44;7.53;;;4.55;;
52031;SDS011;38044;45.148;39.604;2022-11-14T00:51:10;6.95;;;4.63;;
52031;SDS011;38044;45.148;39.604;2022-11-14T00:53:36;7.50;;;4.60;;
52031;SDS011;38044;45.148;39.604;2022-11-14T00:56:02;7.72;;;4.85;;
52031;SDS011;38044;45.148;39.604;2022-11-14T00:58:28;6.97;;;4.85;;
52031;SDS011;38044;45.148;39.604;2022-11-14T01:00:54;6.80;;;4.57;;
52031;SDS011;38044;45.148;39.604;2022-11-14T01:03:20;7.45;;;4.57;;
52031;SDS011;38044;45.148;39.604;2022-11-14T01:05:47;7.95;;;4.78;;
52031;SDS011;38044;45.148;39.604;2022-11-14T01:08:15;6.30;;;4.70;;
52031;SDS011;38044;45.148;39.604;2022-11-14T01:10:46;8.40;;;4.57;;
52031;SDS011;38044;45.148;39.604;2022-11-14T01:13:13;6.97;;;4.30;;
52031;SDS011;38044;45.148;39.604;2022-11-14T01:15:41;6.80;;;4.70;;
52031;SDS011;38044;45.148;39.604;2022-11-14T01:18:09;7.95;;;4.72;;
52031;SDS011;38044;45.148;39.604;2022-11-14T01:20:37;7.07;;;4.82;;
52031;SDS011;38044;45.148;39.604;2022-11-14T01:23:06;7.18;;;4.40;;
52031;SDS011;38044;45.148;39.604;2022-11-14T01:25:33;8.88;;;5.13;;
52031;SDS011;38044;45.148;39.604;2022-11-14T01:27:59;8.18;;;4.80;;
52031;SDS011;38044;45.148;39.604;2022-11-14T01:30:25;8.98;;;4.35;;
52031;SDS011;38044;45.148;39.604;2022-11-14T01:32:51;8.13;;;4.75;;
52031;SDS011;38044;45.148;39.604;2022-11-14T01:35:17;7.05;;;4.70;;
52031;SDS011;38044;45.148;39.604;2022-11-14T01:37:43;6.50;;;4.35;;
52031;SDS011;38044;45.148;39.604;2022-11-14T01:40:09;7.47;;;4.22;;
52031;SDS011;38044;45.148;39.604;2022-11-14T01:42:35;7.28;;;4.35;;
52031;SDS011;38044;45.148;39.604;2022-11-14T01:45:40;7.57;;;4.80;;
52031;SDS011;38044;45.148;39.604;2022-11-14T01:48:07;6.25;;;4.30;;
52031;SDS011;38044;45.148;39.604;2022-11-14T01:51:02;8.35;;;4.88;;
52031;SDS011;38044;45.148;39.604;2022-11-14T01:53:31;8.50;;;4.75;;
52031;SDS011;38044;45.148;39.604;2022-11-14T01:55:58;7.65;;;4.70;;
52031;SDS011;38044;45.148;39.604;2022-11-14T01:58:28;8.18;;;4.88;;
52031;SDS011;38044;45.148;39.604;2022-11-14T02:00:56;8.38;;;4.70;;
52031;SDS011;38044;45.148;39.604;2022-11-14T02:03:22;7.38;;;4.93;;
52031;SDS011;38044;45.148;39.604;2022-11-14T02:05:48;9.80;;;4.57;;
52031;SDS011;38044;45.148;39.604;2022-11-14T02:08:16;7.72;;;4.50;;
52031;SDS011;38044;45.148;39.604;2022-11-14T02:10:43;6.70;;;4.68;;
52031;SDS011;38044;45.148;39.604;2022-11-14T02:13:10;8.98;;;4.75;;
52031;SDS011;38044;45.148;39.604;2022-11-14T02:15:35;8.60;;;4.93;;
52031;SDS011;38044;45.148;39.604;2022-11-14T02:18:02;7.00;;;4.40;;
52031;SDS011;38044;45.148;39.604;2022-11-14T02:20:29;6.82;;;4.45;;
52031;SDS011;38044;45.148;39.604;2022-11-14T02:23:00;7.03;;;4.22;;
52031;SDS011;38044;45.148;39.604;2022-11-14T02:25:25;7.22;;;4.80;;
52031;SDS011;38044;45.148;39.604;2022-11-14T02:27:52;7.30;;;4.72;;
52031;SDS011;38044;45.148;39.604;2022-11-14T02:30:19;6.78;;;4.65;;
52031;SDS011;38044;45.148;39.604;2022-11-14T02:32:46;6.90;;;4.43;;
52031;SDS011;38044;45.148;39.604;2022-11-14T02:35:12;6.72;;;4.28;;
52031;SDS011;38044;45.148;39.604;2022-11-14T02:37:38;5.68;;;4.18;;
52031;SDS011;38044;45.148;39.604;2022-11-14T02:40:05;8.23;;;4.80;;
52031;SDS011;38044;45.148;39.604;2022-11-14T02:42:32;8.63;;;4.45;;
52031;SDS011;38044;45.148;39.604;2022-11-14T02:44:57;10.63;;;5.05;;
52031;SDS011;38044;45.148;39.604;2022-11-14T02:47:23;7.85;;;4.68;;
52031;SDS011;38044;45.148;39.604;2022-11-14T02:49:49;6.95;;;4.25;;
52031;SDS011;38044;45.148;39.604;2022-11-14T02:52:16;9.05;;;4.80;;
52031;SDS011;38044;45.148;39.604;2022-11-14T02:54:42;6.97;;;4.50;;
52031;SDS011;38044;45.148;39.604;2022-11-14T02:57:08;7.88;;;4.70;;
52031;SDS011;38044;45.148;39.604;2022-11-14T02:59:34;6.57;;;4.30;;
52031;SDS011;38044;45.148;39.604;2022-11-14T03:01:59;6.80;;;4.25;;
52031;SDS011;38044;45.148;39.604;2022-11-14T03:04:25;8.85;;;4.93;;
52031;SDS011;38044;45.148;39.604;2022-11-14T03:06:51;8.05;;;4.90;;
52031;SDS011;38044;45.148;39.604;2022-11-14T03:09:17;6.95;;;4.47;;
52031;SDS011;38044;45.148;39.604;2022-11-14T03:11:43;11.70;;;5.43;;
52031;SDS011;38044;45.148;39.604;2022-11-14T03:14:09;9.75;;;5.53;;
52031;SDS011;38044;45.148;39.604;2022-11-14T03:16:35;7.85;;;4.13;;
52031;SDS011;38044;45.148;39.604;2022-11-14T03:19:01;6.80;;;4.57;;
52031;SDS011;38044;45.148;39.604;2022-11-14T03:21:27;7.70;;;4.80;;
52031;SDS011;38044;45.148;39.604;2022-11-14T03:23:52;9.02;;;5.13;;
52031;SDS011;38044;45.148;39.604;2022-11-14T03:26:18;9.38;;;4.68;;
52031;SDS011;38044;45.148;39.604;2022-11-14T03:28:44;8.35;;;4.90;;
52031;SDS011;38044;45.148;39.604;2022-11-14T03:31:11;8.70;;;5.13;;
52031;SDS011;38044;45.148;39.604;2022-11-14T03:33:39;9.02;;;5.10;;
52031;SDS011;38044;45.148;39.604;2022-11-14T03:36:05;7.85;;;5.43;;
52031;SDS011;38044;45.148;39.604;2022-11-14T03:38:32;8.10;;;5.20;;
52031;SDS011;38044;45.148;39.604;2022-11-14T03:40:59;8.48;;;5.22;;
52031;SDS011;38044;45.148;39.604;2022-11-14T03:43:25;9.32;;;5.38;;
52031;SDS011;38044;45.148;39.604;2022-11-14T03:45:56;8.57;;;4.97;;
52031;SDS011;38044;45.148;39.604;2022-11-14T03:48:23;7.38;;;5.28;;
52031;SDS011;38044;45.148;39.604;2022-11-14T03:50:49;9.38;;;5.03;;
52031;SDS011;38044;45.148;39.604;2022-11-14T03:53:14;8.77;;;5.18;;
52031;SDS011;38044;45.148;39.604;2022-11-14T03:55:42;11.70;;;5.25;;
52031;SDS011;38044;45.148;39.604;2022-11-14T03:58:08;8.15;;;4.72;;
52031;SDS011;38044;45.148;39.604;2022-11-14T04:00:34;8.30;;;4.93;;
52031;SDS011;38044;45.148;39.604;2022-11-14T04:03:00;8.52;;;5.10;;
52031;SDS011;38044;45.148;39.604;2022-11-14T04:05:26;7.80;;;4.63;;
52031;SDS011;38044;45.148;39.604;2022-11-14T04:07:52;10.60;;;5.30;;
52031;SDS011;38044;45.148;39.604;2022-11-14T04:10:18;11.48;;;5.10;;
52031;SDS011;38044;45.148;39.604;2022-11-14T04:12:50;8.50;;;5.10;;
52031;SDS011;38044;45.148;39.604;2022-11-14T04:15:17;6.88;;;4.57;;
52031;SDS011;38044;45.148;39.604;2022-11-14T04:17:43;9.75;;;5.30;;
52031;SDS011;38044;45.148;39.604;2022-11-14T04:20:10;8.32;;;4.75;;
52031;SDS011;38044;45.148;39.604;2022-11-14T04:22:36;9.23;;;5.15;;
52031;SDS011;38044;45.148;39.604;2022-11-14T04:25:03;9.25;;;4.95;;
52031;SDS011;38044;45.148;39.604;2022-11-14T04:27:30;10.75;;;5.30;;
52031;SDS011;38044;45.148;39.604;2022-11-14T04:29:56;10.57;;;5.55;;
52031;SDS011;38044;45.148;39.604;2022-11-14T04:32:21;8.60;;;4.78;;
52031;SDS011;38044;45.148;39.604;2022-11-14T04:34:47;7.60;;;5.00;;
52031;SDS011;38044;45.148;39.604;2022-11-14T04:37:13;11.38;;;5.47;;
52031;SDS011;38044;45.148;39.604;2022-11-14T04:39:39;8.50;;;5.35;;
52031;SDS011;38044;45.148;39.604;2022-11-14T04:42:05;8.27;;;5.43;;
52031;SDS011;38044;45.148;39.604;2022-11-14T04:44:31;10.77;;;5.50;;
52031;SDS011;38044;45.148;39.604;2022-11-14T04:46:57;8.98;;;5.75;;
52031;SDS011;38044;45.148;39.604;2022-11-14T04:49:23;12.68;;;6.38;;
52031;SDS011;38044;45.148;39.604;2022-11-14T04:51:48;9.13;;;5.47;;
52031;SDS011;38044;45.148;39.604;2022-11-14T04:54:17;8.65;;;5.82;;
52031;SDS011;38044;45.148;39.604;2022-11-14T04:56:43;10.30;;;5.82;;
52031;SDS011;38044;45.148;39.604;2022-11-14T04:59:09;8.20;;;4.72;;
52031;SDS011;38044;45.148;39.604;2022-11-14T05:01:35;9.93;;;5.90;;
52031;SDS011;38044;45.148;39.604;2022-11-14T05:04:01;10.25;;;5.40;;
52031;SDS011;38044;45.148;39.604;2022-11-14T05:06:27;7.40;;;5.65;;
52031;SDS011;38044;45.148;39.604;2022-11-14T05:08:53;11.18;;;5.88;;
52031;SDS011;38044;45.148;39.604;2022-11-14T05:11:19;10.07;;;5.78;;
52031;SDS011;38044;45.148;39.604;2022-11-14T05:13:45;8.38;;;5.45;;
52031;SDS011;38044;45.148;39.604;2022-11-14T05:16:11;9.55;;;6.15;;
52031;SDS011;38044;45.148;39.604;2022-11-14T05:18:37;8.68;;;5.55;;
52031;SDS011;38044;45.148;39.604;2022-11-14T05:21:04;11.15;;;6.30;;
52031;SDS011;38044;45.148;39.604;2022-11-14T05:23:30;8.00;;;5.35;;
52031;SDS011;38044;45.148;39.604;2022-11-14T05:28:30;11.70;;;6.43;;
52031;SDS011;38044;45.148;39.604;2022-11-14T05:31:02;13.68;;;6.93;;
52031;SDS011;38044;45.148;39.604;2022-11-14T05:33:30;11.93;;;6.80;;
52031;SDS011;38044;45.148;39.604;2022-11-14T05:36:00;12.13;;;7.53;;
52031;SDS011;38044;45.148;39.604;2022-11-14T05:38:28;14.40;;;7.70;;
52031;SDS011;38044;45.148;39.604;2022-11-14T05:40:54;11.57;;;7.65;;
52031;SDS011;38044;45.148;39.604;2022-11-14T05:43:20;16.48;;;8.00;;
52031;SDS011;38044;45.148;39.604;2022-11-14T05:45:45;14.07;;;7.07;;
52031;SDS011;38044;45.148;39.604;2022-11-14T05:48:11;12.65;;;7.18;;
52031;SDS011;38044;45.148;39.604;2022-11-14T05:50:37;10.18;;;6.55;;
52031;SDS011;38044;45.148;39.604;2022-11-14T05:53:03;16.08;;;8.43;;
52031;SDS011;38044;45.148;39.604;2022-11-14T05:55:29;13.18;;;8.77;;
52031;SDS011;38044;45.148;39.604;2022-11-14T05:57:58;14.90;;;8.18;;
52031;SDS011;38044;45.148;39.604;2022-11-14T06:00:24;21.02;;;9.88;;
52031;SDS011;38044;45.148;39.604;2022-11-14T06:02:54;17.40;;;9.80;;
52031;SDS011;38044;45.148;39.604;2022-11-14T06:05:21;16.95;;;8.85;;
52031;SDS011;38044;45.148;39.604;2022-11-14T06:07:47;13.52;;;8.45;;
52031;SDS011;38044;45.148;39.604;2022-11-14T06:10:19;15.15;;;10.07;;
52031;SDS011;38044;45.148;39.604;2022-11-14T06:12:44;16.70;;;10.70;;
52031;SDS011;38044;45.148;39.604;2022-11-14T06:15:12;15.10;;;9.80;;
52031;SDS011;38044;45.148;39.604;2022-11-14T06:17:38;15.00;;;9.77;;
52031;SDS011;38044;45.148;39.604;2022-11-14T06:20:04;16.10;;;11.05;;
52031;SDS011;38044;45.148;39.604;2022-11-14T06:22:30;17.73;;;9.75;;
52031;SDS011;38044;45.148;39.604;2022-11-14T06:24:57;18.95;;;9.68;;
52031;SDS011;38044;45.148;39.604;2022-11-14T06:27:23;22.08;;;10.40;;
52031;SDS011;38044;45.148;39.604;2022-11-14T06:29:49;19.45;;;10.88;;
52031;SDS011;38044;45.148;39.604;2022-11-14T06:32:15;29.73;;;14.00;;
52031;SDS011;38044;45.148;39.604;2022-11-14T06:34:40;21.55;;;12.00;;
52031;SDS011;38044;45.148;39.604;2022-11-14T06:37:06;15.50;;;8.93;;
52031;SDS011;38044;45.148;39.604;2022-11-14T06:39:32;14.50;;;8.75;;
52031;SDS011;38044;45.148;39.604;2022-11-14T06:41:58;18.75;;;9.52;;
52031;SDS011;38044;45.148;39.604;2022-11-14T06:44:24;27.27;;;11.32;;
52031;SDS011;38044;45.148;39.604;2022-11-14T06:46:50;25.30;;;12.35;;
52031;SDS011;38044;45.148;39.604;2022-11-14T06:49:15;27.35;;;13.40;;
52031;SDS011;38044;45.148;39.604;2022-11-14T06:51:41;28.60;;;12.27;;
52031;SDS011;38044;45.148;39.604;2022-11-14T06:54:09;28.35;;;13.40;;
52031;SDS011;38044;45.148;39.604;2022-11-14T06:56:36;18.52;;;10.20;;
52031;SDS011;38044;45.148;39.604;2022-11-14T06:59:02;15.80;;;9.63;;
52031;SDS011;38044;45.148;39.604;2022-11-14T07:01:28;15.70;;;9.52;;
52031;SDS011;38044;45.148;39.604;2022-11-14T07:03:54;19.35;;;10.27;;
52031;SDS011;38044;45.148;39.604;2022-11-14T07:06:26;16.85;;;10.05;;
52031;SDS011;38044;45.148;39.604;2022-11-14T07:08:53;13.27;;;8.18;;
52031;SDS011;38044;45.148;39.604;2022-11-14T07:11:21;16.92;;;10.25;;
52031;SDS011;38044;45.148;39.604;2022-11-14T07:13:59;16.08;;;8.77;;
52031;SDS011;38044;45.148;39.604;2022-11-14T07:16:27;36.38;;;19.55;;
52031;SDS011;38044;45.148;39.604;2022-11-14T07:18:55;42.85;;;22.67;;
52031;SDS011;38044;45.148;39.604;2022-11-14T07:21:25;24.80;;;15.90;;
52031;SDS011;38044;45.148;39.604;2022-11-14T07:23:51;14.05;;;9.88;;
52031;SDS011;38044;45.148;39.604;2022-11-14T07:26:19;13.00;;;8.75;;
52031;SDS011;38044;45.148;39.604;2022-11-14T07:28:45;17.38;;;11.07;;
52031;SDS011;38044;45.148;39.604;2022-11-14T07:31:12;16.83;;;11.15;;
52031;SDS011;38044;45.148;39.604;2022-11-14T07:33:41;24.23;;;14.63;;
52031;SDS011;38044;45.148;39.604;2022-11-14T07:36:07;30.55;;;20.13;;
52031;SDS011;38044;45.148;39.604;2022-11-14T07:38:34;15.98;;;10.38;;
52031;SDS011;38044;45.148;39.604;2022-11-14T07:41:02;14.35;;;9.90;;
52031;SDS011;38044;45.148;39.604;2022-11-14T07:43:35;14.50;;;9.63;;
52031;SDS011;38044;45.148;39.604;2022-11-14T07:46:05;23.45;;;17.55;;
52031;SDS011;38044;45.148;39.604;2022-11-14T07:48:41;10.75;;;9.07;;
52031;SDS011;38044;45.148;39.604;2022-11-14T07:51:09;66.15;;;42.85;;
52031;SDS011;38044;45.148;39.604;2022-11-14T07:56:08;16.92;;;11.10;;
52031;SDS011;38044;45.148;39.604;2022-11-14T07:58:35;15.52;;;10.88;;
52031;SDS011;38044;45.148;39.604;2022-11-14T08:01:06;53.03;;;30.15;;
52031;SDS011;38044;45.148;39.604;2022-11-14T08:03:34;33.42;;;24.15;;
52031;SDS011;38044;45.148;39.604;2022-11-14T08:08:30;33.20;;;21.85;;
52031;SDS011;38044;45.148;39.604;2022-11-14T08:10:56;68.82;;;41.35;;
52031;SDS011;38044;45.148;39.604;2022-11-14T08:13:23;56.30;;;37.65;;
52031;SDS011;38044;45.148;39.604;2022-11-14T08:15:49;39.85;;;23.50;;
52031;SDS011;38044;45.148;39.604;2022-11-14T08:18:16;38.10;;;23.00;;
52031;SDS011;38044;45.148;39.604;2022-11-14T08:20:42;81.85;;;42.35;;
52031;SDS011;38044;45.148;39.604;2022-11-14T08:23:08;82.53;;;37.10;;
52031;SDS011;38044;45.148;39.604;2022-11-14T08:25:34;54.65;;;25.90;;
52031;SDS011;38044;45.148;39.604;2022-11-14T08:28:00;64.13;;;28.95;;
52031;SDS011;38044;45.148;39.604;2022-11-14T08:30:26;31.20;;;18.08;;
52031;SDS011;38044;45.148;39.604;2022-11-14T08:32:52;16.38;;;11.05;;
52031;SDS011;38044;45.148;39.604;2022-11-14T08:35:18;15.30;;;10.63;;
52031;SDS011;38044;45.148;39.604;2022-11-14T08:37:44;11.77;;;8.98;;
52031;SDS011;38044;45.148;39.604;2022-11-14T08:40:10;13.63;;;10.30;;
52031;SDS011;38044;45.148;39.604;2022-11-14T08:42:36;14.15;;;10.15;;
52031;SDS011;38044;45.148;39.604;2022-11-14T08:45:02;14.85;;;10.15;;
52031;SDS011;38044;45.148;39.604;2022-11-14T08:47:29;14.57;;;11.07;;
52031;SDS011;38044;45.148;39.604;2022-11-14T08:49:54;18.67;;;13.45;;
52031;SDS011;38044;45.148;39.604;2022-11-14T08:52:20;20.02;;;14.43;;
52031;SDS011;38044;45.148;39.604;2022-11-14T08:54:46;25.05;;;16.23;;
52031;SDS011;38044;45.148;39.604;2022-11-14T08:57:12;15.35;;;11.50;;
52031;SDS011;38044;45.148;39.604;2022-11-14T08:59:39;15.52;;;12.02;;
52031;SDS011;38044;45.148;39.604;2022-11-14T09:02:09;22.38;;;14.23;;
52031;SDS011;38044;45.148;39.604;2022-11-14T09:04:37;16.33;;;11.93;;
52031;SDS011;38044;45.148;39.604;2022-11-14T09:07:03;13.23;;;9.57;;
52031;SDS011;38044;45.148;39.604;2022-11-14T09:09:30;41.30;;;24.10;;
52031;SDS011;38044;45.148;39.604;2022-11-14T09:11:56;24.33;;;15.70;;
52031;SDS011;38044;45.148;39.604;2022-11-14T09:14:22;37.47;;;26.25;;
52031;SDS011;38044;45.148;39.604;2022-11-14T09:16:48;45.17;;;31.73;;
52031;SDS011;38044;45.148;39.604;2022-11-14T09:19:14;18.67;;;13.60;;
52031;SDS011;38044;45.148;39.604;2022-11-14T09:21:39;27.52;;;18.00;;
52031;SDS011;38044;45.148;39.604;2022-11-14T09:24:05;19.58;;;13.40;;
52031;SDS011;38044;45.148;39.604;2022-11-14T09:26:32;17.52;;;11.88;;
52031;SDS011;38044;45.148;39.604;2022-11-14T09:28:58;14.40;;;10.13;;
52031;SDS011;38044;45.148;39.604;2022-11-14T09:31:26;15.40;;;9.95;;
52031;SDS011;38044;45.148;39.604;2022-11-14T09:33:52;15.73;;;12.10;;
52031;SDS011;38044;45.148;39.604;2022-11-14T09:36:18;16.83;;;11.13;;
52031;SDS011;38044;45.148;39.604;2022-11-14T09:38:44;11.05;;;9.02;;
52031;SDS011;38044;45.148;39.604;2022-11-14T09:41:23;15.48;;;9.45;;
52031;SDS011;38044;45.148;39.604;2022-11-14T09:44:13;12.68;;;9.15;;
52031;SDS011;38044;45.148;39.604;2022-11-14T09:46:46;11.43;;;8.90;;
52031;SDS011;38044;45.148;39.604;2022-11-14T09:49:40;13.88;;;8.73;;
52031;SDS011;38044;45.148;39.604;2022-11-14T09:57:21;22.45;;;10.13;;
52031;SDS011;38044;45.148;39.604;2022-11-14T09:59:47;13.25;;;9.02;;
52031;SDS011;38044;45.148;39.604;2022-11-14T10:10:06;10.88;;;5.65;;
52031;SDS011;38044;45.148;39.604;2022-11-14T10:15:53;13.20;;;6.47;;
52031;SDS011;38044;45.148;39.604;2022-11-14T10:21:01;11.95;;;7.30;;
52031;SDS011;38044;45.148;39.604;2022-11-14T10:26:26;7.45;;;5.50;;
52031;SDS011;38044;45.148;39.604;2022-11-14T10:37:32;11.38;;;6.10;;
52031;SDS011;38044;45.148;39.604;2022-11-14T10:40:19;13.63;;;5.90;;
52031;SDS011;38044;45.148;39.604;2022-11-14T10:42:53;9.23;;;5.45;;
52031;SDS011;38044;45.148;39.604;2022-11-14T10:47:58;11.77;;;6.00;;
52031;SDS011;38044;45.148;39.604;2022-11-14T10:50:32;12.30;;;6.40;;
52031;SDS011;38044;45.148;39.604;2022-11-14T10:53:26;13.73;;;7.82;;
52031;SDS011;38044;45.148;39.604;2022-11-14T10:56:02;19.25;;;11.48;;
52031;SDS011;38044;45.148;39.604;2022-11-14T10:58:28;11.65;;;7.55;;
52031;SDS011;38044;45.148;39.604;2022-11-14T11:00:54;11.38;;;6.05;;
52031;SDS011;38044;45.148;39.604;2022-11-14T11:03:22;8.50;;;5.25;;
52031;SDS011;38044;45.148;39.604;2022-11-14T11:06:08;10.73;;;8.35;;
52031;SDS011;38044;45.148;39.604;2022-11-14T11:08:49;7.90;;;5.70;;
52031;SDS011;38044;45.148;39.604;2022-11-14T11:11:35;10.27;;;5.03;;
52031;SDS011;38044;45.148;39.604;2022-11-14T11:14:08;8.32;;;4.95;;
52031;SDS011;38044;45.148;39.604;2022-11-14T11:16:42;5.65;;;4.30;;
52031;SDS011;38044;45.148;39.604;2022-11-14T11:19:28;7.82;;;5.22;;
52031;SDS011;38044;45.148;39.604;2022-11-14T11:21:55;10.73;;;5.45;;
52031;SDS011;38044;45.148;39.604;2022-11-14T11:29:44;8.07;;;5.45;;
52031;SDS011;38044;45.148;39.604;2022-11-14T11:32:11;11.23;;;5.65;;
52031;SDS011;38044;45.148;39.604;2022-11-14T11:34:50;6.47;;;4.75;;
52031;SDS011;38044;45.148;39.604;2022-11-14T11:37:17;20.90;;;10.18;;
52031;SDS011;38044;45.148;39.604;2022-11-14T11:39:50;36.22;;;17.23;;
52031;SDS011;38044;45.148;39.604;2022-11-14T11:42:23;30.25;;;16.05;;
52031;SDS011;38044;45.148;39.604;2022-11-14T11:45:00;29.83;;;12.63;;
52031;SDS011;38044;45.148;39.604;2022-11-14T11:47:28;12.68;;;7.13;;
52031;SDS011;38044;45.148;39.604;2022-11-14T11:49:58;11.52;;;6.10;;
52031;SDS011;38044;45.148;39.604;2022-11-14T11:55:15;18.88;;;8.90;;
52031;SDS011;38044;45.148;39.604;2022-11-14T11:57:42;13.73;;;8.40;;
52031;SDS011;38044;45.148;39.604;2022-11-14T12:00:19;10.70;;;6.70;;
52031;SDS011;38044;45.148;39.604;2022-11-14T12:02:49;17.02;;;7.93;;
52031;SDS011;38044;45.148;39.604;2022-11-14T12:05:30;13.43;;;7.70;;
52031;SDS011;38044;45.148;39.604;2022-11-14T12:08:12;10.93;;;6.55;;
52031;SDS011;38044;45.148;39.604;2022-11-14T12:10:54;16.80;;;7.88;;
52031;SDS011;38044;45.148;39.604;2022-11-14T12:13:41;14.82;;;6.75;;
52031;SDS011;38044;45.148;39.604;2022-11-14T12:19:07;14.85;;;7.68;;
52031;SDS011;38044;45.148;39.604;2022-11-14T12:22:01;20.83;;;9.60;;
52031;SDS011;38044;45.148;39.604;2022-11-14T12:24:50;25.35;;;11.05;;
52031;SDS011;38044;45.148;39.604;2022-11-14T12:27:57;10.88;;;6.68;;
52031;SDS011;38044;45.148;39.604;2022-11-14T12:30:36;13.13;;;7.07;;
52031;SDS011;38044;45.148;39.604;2022-11-14T12:33:16;18.15;;;8.88;;
52031;SDS011;38044;45.148;39.604;2022-11-14T12:36:02;12.50;;;7.82;;
52031;SDS011;38044;45.148;39.604;2022-11-14T12:38:51;16.80;;;11.02;;
52031;SDS011;38044;45.148;39.604;2022-11-14T12:41:23;15.25;;;8.63;;
52031;SDS011;38044;45.148;39.604;2022-11-14T12:43:53;12.50;;;6.32;;
52031;SDS011;38044;45.148;39.604;2022-11-14T12:58:34;9.35;;;5.50;;
52031;SDS011;38044;45.148;39.604;2022-11-14T13:11:46;9.45;;;5.47;;
52031;SDS011;38044;45.148;39.604;2022-11-14T13:14:31;10.70;;;5.25;;
52031;SDS011;38044;45.148;39.604;2022-11-14T13:17:35;39.42;;;17.92;;
52031;SDS011;38044;45.148;39.604;2022-11-14T13:33:49;99.93;;;55.03;;
52031;SDS011;38044;45.148;39.604;2022-11-14T13:41:51;45.88;;;25.00;;
52031;SDS011;38044;45.148;39.604;2022-11-14T13:44:35;74.88;;;37.85;;
52031;SDS011;38044;45.148;39.604;2022-11-14T13:47:21;197.18;;;102.07;;
52031;SDS011;38044;45.148;39.604;2022-11-14T13:52:31;149.48;;;94.72;;
52031;SDS011;38044;45.148;39.604;2022-11-14T13:54:59;99.30;;;57.92;;
52031;SDS011;38044;45.148;39.604;2022-11-14T14:00:18;36.10;;;21.35;;
52031;SDS011;38044;45.148;39.604;2022-11-14T14:03:00;45.58;;;29.60;;
52031;SDS011;38044;45.148;39.604;2022-11-14T14:08:31;20.10;;;9.93;;
52031;SDS011;38044;45.148;39.604;2022-11-14T14:14:42;27.77;;;10.60;;
52031;SDS011;38044;45.148;39.604;2022-11-14T14:17:25;50.95;;;23.20;;
52031;SDS011;38044;45.148;39.604;2022-11-14T14:20:02;68.80;;;32.00;;
52031;SDS011;38044;45.148;39.604;2022-11-14T14:33:38;148.48;;;89.18;;
52031;SDS011;38044;45.148;39.604;2022-11-14T14:36:15;168.32;;;95.75;;
52031;SDS011;38044;45.148;39.604;2022-11-14T14:38:43;234.85;;;108.57;;
52031;SDS011;38044;45.148;39.604;2022-11-14T14:41:10;187.38;;;96.88;;
52031;SDS011;38044;45.148;39.604;2022-11-14T14:43:39;189.45;;;96.80;;
52031;SDS011;38044;45.148;39.604;2022-11-14T14:46:07;216.07;;;107.13;;
52031;SDS011;38044;45.148;39.604;2022-11-14T14:48:34;184.27;;;93.25;;
52031;SDS011;38044;45.148;39.604;2022-11-14T14:51:04;180.75;;;86.65;;
52031;SDS011;38044;45.148;39.604;2022-11-14T14:53:34;173.52;;;82.65;;
52031;SDS011;38044;45.148;39.604;2022-11-14T14:56:01;164.95;;;78.68;;
52031;SDS011;38044;45.148;39.604;2022-11-14T14:58:30;157.63;;;72.55;;
52031;SDS011;38044;45.148;39.604;2022-11-14T15:00:58;181.77;;;82.07;;
52031;SDS011;38044;45.148;39.604;2022-11-14T15:03:25;203.75;;;94.00;;
52031;SDS011;38044;45.148;39.604;2022-11-14T15:05:59;255.13;;;114.25;;
52031;SDS011;38044;45.148;39.604;2022-11-14T15:08:27;343.38;;;144.50;;
52031;SDS011;38044;45.148;39.604;2022-11-14T15:10:56;303.63;;;136.07;;
52031;SDS011;38044;45.148;39.604;2022-11-14T15:13:24;289.58;;;124.47;;
52031;SDS011;38044;45.148;39.604;2022-11-14T15:15:52;281.15;;;118.07;;
52031;SDS011;38044;45.148;39.604;2022-11-14T15:18:22;250.63;;;105.63;;
52031;SDS011;38044;45.148;39.604;2022-11-14T15:21:06;258.75;;;105.60;;
52031;SDS011;38044;45.148;39.604;2022-11-14T15:23:34;332.85;;;132.93;;
52031;SDS011;38044;45.148;39.604;2022-11-14T15:26:02;323.13;;;131.00;;
52031;SDS011;38044;45.148;39.604;2022-11-14T15:28:34;255.75;;;106.25;;
52031;SDS011;38044;45.148;39.604;2022-11-14T15:31:00;224.55;;;97.65;;
52031;SDS011;38044;45.148;39.604;2022-11-14T15:33:29;273.17;;;106.93;;
52031;SDS011;38044;45.148;39.604;2022-11-14T15:36:07;249.82;;;97.63;;
52031;SDS011;38044;45.148;39.604;2022-11-14T15:38:33;231.63;;;87.57;;
52031;SDS011;38044;45.148;39.604;2022-11-14T15:43:46;313.17;;;121.82;;
52031;SDS011;38044;45.148;39.604;2022-11-14T15:46:28;281.80;;;107.43;;
52031;SDS011;38044;45.148;39.604;2022-11-14T15:48:58;356.42;;;128.82;;
52031;SDS011;38044;45.148;39.604;2022-11-14T15:54:21;426.42;;;159.15;;
52031;SDS011;38044;45.148;39.604;2022-11-14T15:56:49;246.05;;;101.55;;
52031;SDS011;38044;45.148;39.604;2022-11-14T15:59:16;280.08;;;109.88;;
52031;SDS011;38044;45.148;39.604;2022-11-14T16:01:42;226.65;;;93.60;;
52031;SDS011;38044;45.148;39.604;2022-11-14T16:04:13;119.35;;;49.08;;
52031;SDS011;38044;45.148;39.604;2022-11-14T16:06:42;102.70;;;40.40;;
52031;SDS011;38044;45.148;39.604;2022-11-14T16:09:15;91.10;;;34.38;;
52031;SDS011;38044;45.148;39.604;2022-11-14T16:11:42;77.65;;;32.17;;
52031;SDS011;38044;45.148;39.604;2022-11-14T16:14:09;56.40;;;27.67;;
52031;SDS011;38044;45.148;39.604;2022-11-14T16:16:35;61.38;;;26.00;;
52031;SDS011;38044;45.148;39.604;2022-11-14T16:19:01;88.07;;;35.25;;
52031;SDS011;38044;45.148;39.604;2022-11-14T16:21:27;88.75;;;36.80;;
52031;SDS011;38044;45.148;39.604;2022-11-14T16:23:53;158.48;;;61.65;;
52031;SDS011;38044;45.148;39.604;2022-11-14T16:26:19;196.93;;;82.82;;
52031;SDS011;38044;45.148;39.604;2022-11-14T16:28:45;386.13;;;157.65;;
52031;SDS011;38044;45.148;39.604;2022-11-14T16:31:12;351.35;;;141.10;;